createdAt,value
2023-03-24T00:01:07.791Z,18.73
2023-03-24T00:03:36.129Z,18.69
2023-03-24T00:06:04.008Z,18.69
2023-03-24T00:08:36.510Z,18.74
2023-03-24T00:11:06.106Z,18.68
2023-03-24T00:13:37.660Z,18.64
2023-03-24T00:16:11.150Z,18.72
2023-03-24T00:18:38.826Z,18.70
2023-03-24T00:21:10.358Z,18.74
2023-03-24T00:23:37.355Z,18.67
2023-03-24T00:26:14.929Z,18.69
2023-03-24T00:28:45.151Z,18.70
2023-03-24T00:31:15.596Z,18.73
2023-03-24T00:33:43.507Z,18.74
2023-03-24T00:36:13.748Z,18.69
2023-03-24T00:38:41.207Z,18.68
2023-03-24T00:41:08.536Z,18.69
2023-03-24T00:43:36.688Z,18.73
2023-03-24T00:46:07.382Z,18.71
2023-03-24T00:48:41.498Z,18.73
2023-03-24T00:51:10.391Z,18.68
2023-03-24T00:53:43.052Z,18.64
2023-03-24T00:56:15.042Z,18.63
2023-03-24T00:58:42.803Z,18.63
2023-03-24T01:01:10.245Z,18.57
2023-03-24T01:03:50.218Z,18.59
2023-03-24T01:06:18.142Z,18.63
2023-03-24T01:08:45.300Z,18.58
2023-03-24T01:11:14.386Z,18.55
2023-03-24T01:13:42.026Z,18.57
2023-03-24T01:16:09.392Z,18.53
2023-03-24T01:18:40.245Z,18.51
2023-03-24T01:21:11.200Z,18.49
2023-03-24T01:23:38.312Z,18.44
2023-03-24T01:26:07.011Z,18.42
2023-03-24T01:28:39.552Z,18.40
2023-03-24T01:31:08.647Z,18.30
2023-03-24T01:33:36.994Z,18.32
2023-03-24T01:36:04.847Z,18.32
2023-03-24T01:38:32.571Z,18.33
2023-03-24T01:40:59.721Z,18.35
2023-03-24T01:43:30.606Z,18.36
2023-03-24T01:46:20.837Z,18.36
2023-03-24T01:49:06.024Z,18.36
2023-03-24T01:51:36.633Z,18.34
2023-03-24T01:54:30.515Z,18.27
2023-03-24T01:57:03.334Z,18.03
2023-03-24T01:59:33.469Z,18.04
2023-03-24T02:02:21.613Z,18.09
2023-03-24T02:04:59.138Z,18.04
2023-03-24T02:07:57.539Z,18.00
2023-03-24T02:10:24.575Z,17.98
2023-03-24T02:12:51.609Z,17.88
2023-03-24T02:15:21.194Z,17.64
2023-03-24T02:18:09.887Z,17.61
2023-03-24T02:21:11.910Z,17.60
2023-03-24T02:24:15.512Z,17.63
2023-03-24T02:26:48.515Z,17.56
2023-03-24T02:29:31.813Z,17.63
2023-03-24T02:32:20.738Z,17.66
2023-03-24T02:35:17.365Z,17.67
2023-03-24T02:37:55.162Z,17.71
2023-03-24T02:40:49.051Z,17.71
2023-03-24T02:43:25.475Z,17.75
2023-03-24T02:46:13.071Z,17.72
2023-03-24T02:49:09.706Z,17.72
2023-03-24T02:51:59.854Z,17.72
2023-03-24T02:54:47.730Z,17.74
2023-03-24T02:57:32.461Z,17.69
2023-03-24T03:00:47.628Z,17.73
2023-03-24T03:03:44.525Z,17.72
2023-03-24T03:06:23.936Z,17.56
2023-03-24T03:08:51.622Z,17.66
2023-03-24T03:11:18.916Z,17.64
2023-03-24T03:13:52.118Z,17.67
2023-03-24T03:16:25.512Z,17.79
2023-03-24T03:18:58.330Z,17.74
2023-03-24T03:21:29.233Z,17.75
2023-03-24T03:24:16.623Z,17.71
2023-03-24T03:26:45.703Z,17.73
2023-03-24T03:29:16.609Z,17.71
2023-03-24T03:31:49.224Z,17.69
2023-03-24T03:34:34.347Z,17.65
2023-03-24T03:37:22.600Z,17.60
2023-03-24T03:39:53.991Z,17.60
2023-03-24T03:42:21.175Z,17.62
2023-03-24T03:44:48.630Z,17.57
2023-03-24T03:47:18.447Z,17.56
2023-03-24T03:49:45.673Z,17.56
2023-03-24T03:52:14.067Z,17.53
2023-03-24T03:54:42.879Z,17.52
2023-03-24T03:57:10.836Z,17.50
2023-03-24T04:00:19.389Z,17.53
2023-03-24T04:03:44.469Z,17.59
2023-03-24T04:06:43.808Z,17.59
2023-03-24T04:09:35.899Z,17.63
2023-03-24T04:12:12.660Z,17.65
2023-03-24T04:15:01.493Z,17.60
2023-03-24T04:17:43.787Z,17.60
2023-03-24T04:20:46.020Z,17.58
2023-03-24T04:23:39.433Z,17.60
2023-03-24T04:26:09.931Z,17.62
2023-03-24T04:29:22.801Z,17.60
2023-03-24T04:32:04.465Z,17.62
2023-03-24T04:34:34.702Z,17.67
2023-03-24T04:37:14.082Z,17.65
2023-03-24T04:40:05.465Z,17.73
2023-03-24T04:42:37.861Z,17.86
2023-03-24T04:45:05.528Z,18.05
2023-03-24T04:47:58.184Z,18.08
2023-03-24T04:50:39.312Z,18.11
2023-03-24T04:53:10.074Z,18.14
2023-03-24T04:55:50.360Z,18.16
2023-03-24T04:58:29.365Z,18.14
2023-03-24T05:00:58.127Z,18.02
2023-03-24T05:03:25.929Z,18.20
2023-03-24T05:05:57.012Z,18.20
2023-03-24T05:08:23.997Z,18.25
2023-03-24T05:10:51.230Z,18.30
2023-03-24T05:13:18.514Z,18.37
2023-03-24T05:15:54.678Z,18.41
2023-03-24T05:18:34.304Z,18.43
2023-03-24T05:21:03.015Z,18.44
2023-03-24T05:23:30.245Z,18.47
2023-03-24T05:26:02.723Z,18.49
2023-03-24T05:28:31.181Z,18.55
2023-03-24T05:30:58.490Z,18.57
2023-03-24T05:33:45.613Z,18.61
2023-03-24T05:36:15.346Z,18.60
2023-03-24T05:38:43.354Z,18.59
2023-03-24T05:41:10.460Z,18.66
2023-03-24T05:43:39.680Z,18.72
2023-03-24T05:47:32.476Z,18.14
2023-03-24T05:50:01.049Z,19.03
2023-03-24T05:52:31.803Z,19.08
2023-03-24T05:55:12.345Z,19.15
2023-03-24T05:57:43.950Z,19.13
2023-03-24T06:00:23.577Z,19.15
2023-03-24T06:03:18.141Z,19.24
2023-03-24T06:05:53.633Z,19.31
2023-03-24T06:08:22.770Z,19.35
2023-03-24T06:10:53.649Z,19.40
2023-03-24T06:13:23.236Z,19.44
2023-03-24T06:15:54.877Z,19.61
2023-03-24T06:18:52.769Z,19.79
2023-03-24T06:21:41.504Z,19.92
2023-03-24T06:24:15.010Z,20.04
2023-03-24T06:26:44.854Z,20.19
2023-03-24T06:29:13.840Z,20.31
2023-03-24T06:31:42.412Z,20.38
2023-03-24T06:34:10.967Z,20.49
2023-03-24T06:36:40.851Z,20.55
2023-03-24T06:39:09.914Z,20.60
2023-03-24T06:41:39.509Z,20.65
2023-03-24T06:44:10.138Z,20.70
2023-03-24T06:46:40.934Z,20.75
2023-03-24T06:49:09.613Z,20.76
2023-03-24T06:51:38.234Z,20.75
2023-03-24T06:54:08.632Z,20.74
2023-03-24T06:56:37.778Z,20.78
2023-03-24T06:59:07.340Z,20.67
2023-03-24T07:01:36.420Z,20.77
2023-03-24T07:04:29.442Z,20.57
2023-03-24T07:07:19.717Z,20.73
2023-03-24T07:10:22.005Z,20.58
2023-03-24T07:12:51.349Z,20.53
2023-03-24T07:15:20.033Z,20.66
2023-03-24T07:17:55.817Z,20.63
2023-03-24T07:20:46.426Z,20.56
2023-03-24T07:23:21.857Z,20.53
2023-03-24T07:26:08.799Z,20.58
2023-03-24T07:28:46.499Z,20.88
2023-03-24T07:31:18.309Z,20.95
2023-03-24T07:33:48.031Z,20.98
2023-03-24T07:36:17.121Z,21.01
2023-03-24T07:38:45.759Z,21.05
2023-03-24T07:41:19.415Z,21.09
2023-03-24T07:43:52.200Z,21.08
2023-03-24T07:46:25.863Z,21.06
2023-03-24T07:49:03.248Z,21.07
2023-03-24T07:51:39.781Z,21.10
2023-03-24T07:54:35.753Z,21.16
2023-03-24T07:57:04.682Z,21.22
2023-03-24T07:59:34.344Z,21.23
2023-03-24T08:02:19.287Z,21.30
2023-03-24T08:05:18.619Z,21.25
2023-03-24T08:07:54.420Z,21.28
2023-03-24T08:10:28.139Z,21.39
2023-03-24T08:13:02.200Z,21.50
2023-03-24T08:15:30.506Z,21.50
2023-03-24T08:18:04.028Z,21.61
2023-03-24T08:20:34.213Z,21.65
2023-03-24T08:23:05.045Z,21.70
2023-03-24T08:25:34.811Z,21.82
2023-03-24T08:28:03.659Z,21.81
2023-03-24T08:30:32.877Z,21.97
2023-03-24T08:33:02.262Z,21.96
2023-03-24T08:35:35.047Z,22.00
2023-03-24T08:38:06.825Z,22.04
2023-03-24T08:40:37.883Z,22.10
2023-03-24T08:43:10.272Z,22.14
2023-03-24T08:45:38.831Z,22.16
2023-03-24T08:48:08.513Z,22.18
2023-03-24T08:50:41.108Z,22.26
2023-03-24T08:53:11.781Z,22.31
2023-03-24T08:55:43.331Z,22.38
2023-03-24T08:58:18.938Z,22.45
2023-03-24T09:00:48.039Z,22.45
2023-03-24T09:03:22.803Z,22.49
2023-03-24T09:05:57.425Z,22.59
2023-03-24T09:08:26.662Z,22.69
2023-03-24T09:10:55.094Z,22.78
2023-03-24T09:13:25.065Z,22.84
2023-03-24T09:15:55.029Z,22.97
2023-03-24T09:18:23.676Z,23.14
2023-03-24T09:20:54.862Z,23.22
2023-03-24T09:23:23.886Z,23.28
2023-03-24T09:25:53.923Z,23.39
2023-03-24T09:28:24.562Z,23.49
2023-03-24T09:31:04.039Z,23.64
2023-03-24T09:33:34.436Z,23.82
2023-03-24T09:36:03.487Z,23.91
2023-03-24T09:38:35.235Z,24.09
2023-03-24T09:41:04.601Z,24.26
2023-03-24T09:43:44.193Z,24.37
2023-03-24T09:46:38.084Z,24.42
2023-03-24T09:49:11.522Z,24.46
2023-03-24T09:51:44.864Z,24.51
2023-03-24T09:54:19.219Z,24.53
2023-03-24T09:56:51.288Z,24.62
2023-03-24T09:59:29.628Z,24.70
2023-03-24T10:01:59.205Z,24.80
2023-03-24T10:04:28.902Z,24.83
2023-03-24T10:07:08.843Z,25.02
2023-03-24T10:09:37.996Z,25.03
2023-03-24T10:12:22.067Z,25.03
2023-03-24T10:14:56.386Z,25.00
2023-03-24T10:17:30.289Z,25.06
2023-03-24T10:20:43.912Z,25.05
2023-03-24T10:23:31.834Z,25.18
2023-03-24T10:26:27.657Z,25.38
2023-03-24T10:29:02.489Z,25.59
2023-03-24T10:31:32.579Z,25.71
2023-03-24T10:34:01.121Z,25.76
2023-03-24T10:36:31.197Z,25.81
2023-03-24T10:39:03.931Z,25.68
2023-03-24T10:41:42.722Z,25.74
2023-03-24T10:44:12.415Z,25.54
2023-03-24T10:46:47.141Z,25.65
2023-03-24T10:49:20.030Z,25.65
2023-03-24T10:51:51.611Z,25.73
2023-03-24T10:54:22.309Z,25.75
2023-03-24T10:56:59.261Z,25.82
2023-03-24T10:59:46.037Z,25.84
2023-03-24T11:02:18.152Z,25.94
2023-03-24T11:04:58.140Z,26.00
2023-03-24T11:07:37.833Z,26.10
2023-03-24T11:10:08.242Z,26.15
2023-03-24T11:12:39.221Z,26.13
2023-03-24T11:15:22.097Z,26.20
2023-03-24T11:18:14.456Z,26.25
2023-03-24T11:21:08.140Z,26.23
2023-03-24T11:23:42.963Z,26.21
2023-03-24T11:26:15.736Z,26.35
2023-03-24T11:29:04.360Z,26.44
2023-03-24T11:31:38.532Z,26.33
2023-03-24T11:34:10.670Z,26.47
2023-03-24T11:36:46.841Z,26.44
2023-03-24T11:39:19.239Z,26.43
2023-03-24T11:42:05.360Z,26.51
2023-03-24T11:44:40.629Z,26.32
2023-03-24T11:47:29.950Z,26.14
2023-03-24T11:50:07.369Z,26.24
2023-03-24T11:52:49.950Z,26.34
2023-03-24T11:55:29.399Z,26.49
2023-03-24T11:58:10.995Z,26.64
2023-03-24T12:00:48.691Z,26.88
2023-03-24T12:03:36.759Z,27.01
2023-03-24T12:06:38.500Z,27.10
2023-03-24T12:09:32.813Z,27.04
2023-03-24T12:12:27.475Z,27.37
2023-03-24T12:15:09.697Z,27.44
2023-03-24T12:18:17.700Z,27.66
2023-03-24T12:20:48.641Z,27.51
2023-03-24T12:23:33.056Z,27.52
2023-03-24T12:26:18.031Z,27.46
2023-03-24T12:29:06.539Z,27.41
2023-03-24T12:31:44.587Z,27.33
2023-03-24T12:34:33.922Z,27.25
2023-03-24T12:37:06.226Z,27.36
2023-03-24T12:39:37.622Z,27.34
2023-03-24T12:42:11.028Z,27.36
2023-03-24T12:44:46.579Z,27.33
2023-03-24T12:47:30.536Z,27.41
2023-03-24T12:50:11.557Z,27.34
2023-03-24T12:52:43.814Z,27.37
2023-03-24T12:55:18.200Z,27.27
2023-03-24T12:57:54.232Z,27.21
2023-03-24T13:00:28.727Z,27.24
2023-03-24T13:03:01.932Z,27.21
2023-03-24T13:05:32.000Z,27.17
2023-03-24T13:08:03.548Z,27.23
2023-03-24T13:10:40.599Z,27.13
2023-03-24T13:13:11.858Z,27.00
2023-03-24T13:15:42.083Z,27.10
2023-03-24T13:18:11.329Z,27.18
2023-03-24T13:21:00.534Z,27.14
2023-03-24T13:23:35.538Z,27.16
2023-03-24T13:26:42.860Z,27.23
2023-03-24T13:29:11.266Z,27.17
2023-03-24T13:31:43.940Z,27.43
2023-03-24T13:34:39.597Z,27.76
2023-03-24T13:37:22.942Z,27.95
2023-03-24T13:39:58.929Z,28.02
2023-03-24T13:42:33.357Z,27.92
2023-03-24T13:45:03.478Z,27.99
2023-03-24T13:48:02.674Z,27.89
2023-03-24T13:50:32.856Z,28.08
2023-03-24T13:53:06.616Z,28.26
2023-03-24T13:55:37.376Z,28.36
2023-03-24T13:58:13.237Z,28.36
2023-03-24T14:01:09.708Z,28.30
2023-03-24T14:03:39.325Z,28.23
2023-03-24T14:06:09.662Z,28.09
2023-03-24T14:08:48.209Z,27.75
2023-03-24T14:11:32.477Z,27.64
2023-03-24T14:14:14.211Z,27.51
2023-03-24T14:17:07.387Z,27.37
2023-03-24T14:19:40.724Z,27.18
2023-03-24T14:22:36.509Z,27.05
2023-03-24T14:25:18.317Z,26.86
2023-03-24T14:27:48.857Z,26.81
2023-03-24T14:30:23.899Z,26.81
2023-03-24T14:32:55.147Z,26.69
2023-03-24T14:35:35.306Z,26.54
2023-03-24T14:38:24.434Z,26.60
2023-03-24T14:40:57.433Z,26.41
2023-03-24T14:43:30.552Z,26.38
2023-03-24T14:46:03.130Z,26.39
2023-03-24T14:48:51.965Z,26.51
2023-03-24T14:51:36.982Z,26.46
2023-03-24T14:54:17.284Z,26.45
2023-03-24T14:56:47.943Z,26.45
2023-03-24T14:59:44.560Z,26.37
2023-03-24T15:02:37.229Z,26.32
2023-03-24T15:05:15.547Z,26.21
2023-03-24T15:07:46.714Z,26.15
2023-03-24T15:10:16.526Z,26.02
2023-03-24T15:12:45.835Z,26.06
2023-03-24T15:15:24.449Z,26.04
2023-03-24T15:17:54.156Z,25.97
2023-03-24T15:20:24.311Z,25.95
2023-03-24T15:22:56.839Z,25.96
2023-03-24T15:25:28.306Z,25.96
2023-03-24T15:27:58.660Z,25.92
2023-03-24T15:30:28.161Z,25.85
2023-03-24T15:32:57.437Z,25.84
2023-03-24T15:35:25.782Z,25.72
2023-03-24T15:37:56.701Z,25.70
2023-03-24T15:40:31.961Z,25.66
2023-03-24T15:43:03.595Z,25.62
2023-03-24T15:46:11.852Z,25.62
2023-03-24T15:48:41.355Z,25.61
2023-03-24T15:51:11.851Z,25.55
2023-03-24T15:53:49.810Z,25.52
2023-03-24T15:56:24.663Z,25.50
2023-03-24T15:59:06.160Z,25.47
2023-03-24T16:01:39.044Z,25.43
2023-03-24T16:04:17.882Z,25.41
2023-03-24T16:06:53.448Z,25.38
2023-03-24T16:09:27.570Z,25.32
2023-03-24T16:11:57.089Z,25.29
2023-03-24T16:14:28.488Z,25.28
2023-03-24T16:16:59.711Z,25.23
2023-03-24T16:19:29.637Z,25.18
2023-03-24T16:22:02.670Z,25.17
2023-03-24T16:24:32.356Z,25.14
2023-03-24T16:27:01.477Z,25.14
2023-03-24T16:29:33.011Z,25.13
2023-03-24T16:32:01.699Z,25.11
2023-03-24T16:34:31.946Z,25.11
2023-03-24T16:37:00.795Z,25.08
2023-03-24T16:39:30.278Z,25.06
2023-03-24T16:42:01.566Z,25.02
2023-03-24T16:44:31.311Z,25.00
2023-03-24T16:47:00.187Z,24.97
2023-03-24T16:49:29.148Z,24.92
2023-03-24T16:51:57.680Z,24.85
2023-03-24T16:54:32.976Z,24.82
2023-03-24T16:57:01.666Z,24.79
2023-03-24T16:59:30.482Z,24.79
2023-03-24T17:02:03.473Z,24.76
2023-03-24T17:04:34.217Z,24.76
2023-03-24T17:07:05.173Z,24.73
2023-03-24T17:09:36.542Z,24.71
2023-03-24T17:12:05.182Z,24.72
2023-03-24T17:14:33.959Z,24.75
2023-03-24T17:17:04.844Z,24.72
2023-03-24T17:19:33.402Z,24.70
2023-03-24T17:22:06.560Z,24.68
2023-03-24T17:24:38.602Z,24.69
2023-03-24T17:27:16.918Z,24.69
2023-03-24T17:29:46.848Z,24.67
2023-03-24T17:32:15.205Z,24.59
2023-03-24T17:34:45.845Z,24.57
2023-03-24T17:37:15.365Z,24.51
2023-03-24T17:39:44.310Z,24.45
2023-03-24T17:42:14.982Z,24.46
2023-03-24T17:44:45.348Z,24.45
2023-03-24T17:47:21.122Z,24.45
2023-03-24T17:50:09.844Z,24.48
2023-03-24T17:52:41.243Z,24.44
2023-03-24T17:55:10.706Z,24.42
2023-03-24T17:57:39.457Z,24.37
2023-03-24T18:00:12.095Z,24.34
2023-03-24T18:04:01.461Z,23.33
2023-03-24T18:06:33.869Z,24.24
2023-03-24T18:09:02.361Z,24.28
2023-03-24T18:11:31.328Z,24.16
2023-03-24T18:14:01.758Z,24.14
2023-03-24T18:16:31.024Z,24.12
2023-03-24T18:19:01.400Z,24.08
2023-03-24T18:21:35.131Z,24.03
2023-03-24T18:24:04.745Z,24.16
2023-03-24T18:26:33.883Z,24.19
2023-03-24T18:29:03.725Z,24.18
2023-03-24T18:31:33.751Z,24.10
2023-03-24T18:34:03.685Z,24.03
2023-03-24T18:36:34.640Z,24.08
2023-03-24T18:39:05.802Z,24.08
2023-03-24T18:41:38.010Z,24.02
2023-03-24T18:44:17.099Z,23.98
2023-03-24T18:46:49.169Z,23.90
2023-03-24T18:49:18.240Z,23.85
2023-03-24T18:51:47.027Z,23.84
2023-03-24T18:54:16.001Z,23.82
2023-03-24T18:56:44.579Z,23.83
2023-03-24T18:59:16.760Z,23.89
2023-03-24T19:01:48.743Z,23.85
2023-03-24T19:04:17.667Z,23.80
2023-03-24T19:06:47.341Z,23.77
2023-03-24T19:09:20.398Z,23.76
2023-03-24T19:11:49.506Z,23.78
2023-03-24T19:14:17.906Z,23.73
2023-03-24T19:16:46.744Z,23.72
2023-03-24T19:19:18.637Z,23.68
2023-03-24T19:21:47.785Z,23.68
2023-03-24T19:24:17.292Z,23.65
2023-03-24T19:26:45.800Z,23.63
2023-03-24T19:29:14.366Z,23.64
2023-03-24T19:31:42.694Z,23.65
2023-03-24T19:34:11.290Z,23.66
2023-03-24T19:36:45.463Z,23.64
2023-03-24T19:39:15.823Z,23.61
2023-03-24T19:41:44.767Z,23.54
2023-03-24T19:44:13.331Z,23.46
2023-03-24T19:46:42.657Z,23.40
2023-03-24T19:49:11.214Z,23.37
2023-03-24T19:51:39.526Z,23.36
2023-03-24T19:54:07.928Z,23.34
2023-03-24T19:56:36.620Z,23.31
2023-03-24T19:59:06.587Z,23.27
2023-03-24T20:01:35.902Z,23.25
2023-03-24T20:04:04.378Z,23.17
2023-03-24T20:06:35.849Z,23.15
2023-03-24T20:09:05.204Z,23.12
2023-03-24T20:11:33.690Z,23.10
2023-03-24T20:14:02.272Z,23.06
2023-03-24T20:16:30.925Z,22.97
2023-03-24T20:18:59.374Z,22.95
2023-03-24T20:21:33.158Z,22.95
2023-03-24T20:24:02.911Z,22.95
2023-03-24T20:26:35.520Z,22.98
2023-03-24T20:29:04.970Z,22.98
2023-03-24T20:31:33.568Z,22.95
2023-03-24T20:34:03.426Z,22.91
2023-03-24T20:36:32.548Z,22.89
2023-03-24T20:39:07.047Z,22.88
2023-03-24T20:41:36.423Z,22.85
2023-03-24T20:44:05.419Z,22.83
2023-03-24T20:46:33.802Z,22.80
2023-03-24T20:49:02.673Z,22.78
2023-03-24T20:51:31.302Z,22.77
2023-03-24T20:53:59.787Z,22.75
2023-03-24T20:56:28.937Z,22.70
2023-03-24T20:58:57.552Z,22.66
2023-03-24T21:01:26.065Z,22.69
2023-03-24T21:03:55.613Z,22.68
2023-03-24T21:06:29.469Z,22.67
2023-03-24T21:08:59.699Z,22.64
2023-03-24T21:11:31.440Z,22.61
2023-03-24T21:14:00.159Z,22.58
2023-03-24T21:16:29.136Z,22.55
2023-03-24T21:19:02.000Z,22.51
2023-03-24T21:21:30.438Z,22.49
2023-03-24T21:23:58.791Z,22.44
2023-03-24T21:26:27.215Z,22.42
2023-03-24T21:28:55.564Z,22.38
2023-03-24T21:31:32.003Z,22.36
2023-03-24T21:34:01.135Z,22.34
2023-03-24T21:36:33.001Z,22.31
2023-03-24T21:39:07.075Z,22.29
2023-03-24T21:41:39.056Z,22.26
2023-03-24T21:44:13.904Z,22.23
2023-03-24T21:46:43.176Z,22.24
2023-03-24T21:49:11.506Z,22.26
2023-03-24T21:51:43.030Z,22.27
2023-03-24T21:54:15.135Z,22.26
2023-03-24T21:56:43.575Z,22.22
2023-03-24T21:59:12.327Z,22.21
2023-03-24T22:01:42.327Z,22.20
2023-03-24T22:04:11.184Z,22.19
2023-03-24T22:06:39.931Z,22.19
2023-03-24T22:09:10.601Z,22.19
2023-03-24T22:11:43.024Z,22.15
2023-03-24T22:14:19.346Z,22.13
2023-03-24T22:16:49.637Z,22.11
2023-03-24T22:19:18.167Z,22.17
2023-03-24T22:22:02.494Z,22.21
2023-03-24T22:24:32.078Z,22.21
2023-03-24T22:27:01.092Z,22.19
2023-03-24T22:29:29.611Z,22.18
2023-03-24T22:31:57.951Z,22.14
2023-03-24T22:34:28.862Z,22.11
2023-03-24T22:36:57.522Z,22.06
2023-03-24T22:39:26.281Z,22.06
2023-03-24T22:41:57.416Z,22.07
2023-03-24T22:44:26.030Z,22.03
2023-03-24T22:46:59.312Z,22.02
2023-03-24T22:49:33.014Z,22.04
2023-03-24T22:52:01.550Z,22.02
2023-03-24T22:54:36.481Z,22.00
2023-03-24T22:57:05.561Z,21.95
2023-03-24T22:59:39.696Z,22.00
2023-03-24T23:02:10.283Z,22.04
2023-03-24T23:04:40.638Z,22.05
2023-03-24T23:07:10.418Z,22.06
2023-03-24T23:09:43.742Z,22.08
2023-03-24T23:12:13.748Z,22.13
2023-03-24T23:14:42.497Z,22.16
2023-03-24T23:17:10.806Z,22.14
2023-03-24T23:19:39.749Z,22.16
2023-03-24T23:22:08.564Z,22.17
2023-03-24T23:24:39.730Z,22.19
2023-03-24T23:27:08.814Z,22.21
2023-03-24T23:29:40.902Z,22.19
2023-03-24T23:32:09.392Z,22.18
2023-03-24T23:34:38.292Z,22.15
2023-03-24T23:37:06.710Z,22.16
2023-03-24T23:39:38.704Z,22.13
2023-03-24T23:42:07.064Z,22.12
2023-03-24T23:44:38.852Z,22.16
2023-03-24T23:47:07.330Z,22.15
2023-03-24T23:49:35.814Z,22.16
2023-03-24T23:52:04.452Z,22.12
2023-03-24T23:54:32.934Z,22.11
2023-03-24T23:57:01.422Z,22.12
2023-03-24T23:59:30.743Z,22.09
